Time;durP1;ratioP1;P1;durP2;ratioP2;P2;SDS_P1;SDS_P2;PMS_P1;PMS_P2;Temp;Humidity;BMP_temperature;BMP_pressure;BME280_temperature;BME280_humidity;BME280_pressure;Samples;Min_cycle;Max_cycle;Signal;HPM_P1;HPM_P2
2023/08/27 00:03:21;;;;;;;2.13;1.00;;;;;;;;;;8271839;28;20084;-56
2023/08/27 00:07:23;;;;;;;1.15;0.80;;;;;;;;;;8271068;28;20037;-55
2023/08/27 00:11:23;;;;;;;2.17;0.80;;;;;;;;;;8268321;28;20125;-55
2023/08/27 00:15:23;;;;;;;1.97;1.03;;;;;;;;;;8270198;28;20061;-55
2023/08/27 00:19:23;;;;;;;0.80;0.80;;;;;;;;;;8271570;28;20030;-56
2023/08/27 00:23:24;;;;;;;0.70;0.70;;;;;;;;;;8268901;28;20022;-55
2023/08/27 00:27:24;;;;;;;0.82;0.80;;;;;;;;;;8271977;28;20030;-56
2023/08/27 00:31:24;;;;;;;0.88;0.70;;;;;;;;;;8271245;28;20220;-56
2023/08/27 00:35:24;;;;;;;1.73;0.80;;;;;;;;;;8268222;28;20578;-55
2023/08/27 00:39:25;;;;;;;1.30;0.80;;;;;;;;;;8271733;28;20034;-54
2023/08/27 00:43:25;;;;;;;1.05;0.80;;;;;;;;;;8270412;28;20132;-56
2023/08/27 00:47:26;;;;;;;0.98;0.65;;;;;;;;;;8270417;28;20034;-55
2023/08/27 00:51:26;;;;;;;1.23;0.90;;;;;;;;;;8270425;28;20025;-56
2023/08/27 00:55:26;;;;;;;0.80;0.68;;;;;;;;;;8269631;28;20444;-56
2023/08/27 00:59:26;;;;;;;0.70;0.60;;;;;;;;;;8267752;28;20296;-55
2023/08/27 01:03:27;;;;;;;1.75;0.77;;;;;;;;;;8258990;28;20522;-56
2023/08/27 01:07:41;;;;;;;0.70;0.70;;;;;;;;;;8270297;28;20791;-56
2023/08/27 01:11:56;;;;;;;1.52;0.70;;;;;;;;;;8271805;28;20083;-56
2023/08/27 01:15:58;;;;;;;0.80;0.80;;;;;;;;;;8268908;28;20080;-55
2023/08/27 01:19:58;;;;;;;0.60;0.60;;;;;;;;;;8266661;28;20032;-56
2023/08/27 01:23:58;;;;;;;0.82;0.70;;;;;;;;;;8270139;28;20813;-56
2023/08/27 01:28:18;;;;;;;1.10;0.70;;;;;;;;;;8269227;28;20014;-56
2023/08/27 01:32:25;;;;;;;1.55;0.70;;;;;;;;;;8269600;28;20029;-55
2023/08/27 01:36:25;;;;;;;1.13;0.80;;;;;;;;;;8268674;28;20025;-56
2023/08/27 01:40:27;;;;;;;2.30;0.75;;;;;;;;;;8269252;28;20024;-56
2023/08/27 01:44:27;;;;;;;0.90;0.77;;;;;;;;;;8270079;28;20072;-56
2023/08/27 01:48:27;;;;;;;1.15;0.80;;;;;;;;;;8268711;28;20033;-55
2023/08/27 01:52:27;;;;;;;0.70;0.70;;;;;;;;;;8269769;28;20048;-55
2023/08/27 01:56:27;;;;;;;2.73;0.77;;;;;;;;;;8267844;28;20037;-55
2023/08/27 02:00:28;;;;;;;0.70;0.70;;;;;;;;;;8267768;28;20128;-56
2023/08/27 02:04:28;;;;;;;0.68;0.63;;;;;;;;;;8267770;28;20037;-55
2023/08/27 02:08:28;;;;;;;1.88;0.60;;;;;;;;;;8266031;28;20029;-55
2023/08/27 02:12:28;;;;;;;1.00;0.70;;;;;;;;;;8264185;28;20022;-56
2023/08/27 02:16:28;;;;;;;1.07;0.80;;;;;;;;;;8265106;28;20562;-55
2023/08/27 02:20:30;;;;;;;1.52;0.75;;;;;;;;;;8260795;28;20558;-55
2023/08/27 02:24:30;;;;;;;0.95;0.77;;;;;;;;;;8260011;28;20037;-56
2023/08/27 02:28:32;;;;;;;1.17;0.80;;;;;;;;;;8267954;28;20087;-56
2023/08/27 02:32:33;;;;;;;0.70;0.70;;;;;;;;;;8266209;28;20125;-56
2023/08/27 02:36:33;;;;;;;1.35;0.80;;;;;;;;;;8263804;28;20132;-56
2023/08/27 02:40:33;;;;;;;1.95;0.70;;;;;;;;;;8268454;28;20029;-56
2023/08/27 02:44:34;;;;;;;0.70;0.70;;;;;;;;;;8267134;28;20028;-55
2023/08/27 02:48:34;;;;;;;1.20;0.80;;;;;;;;;;8266571;28;20042;-56
2023/08/27 02:52:34;;;;;;;0.77;0.75;;;;;;;;;;8267217;28;20036;-56
2023/08/27 02:56:35;;;;;;;2.75;0.80;;;;;;;;;;8265270;28;20038;-56
2023/08/27 03:00:38;;;;;;;2.50;0.90;;;;;;;;;;8268064;28;20045;-56
2023/08/27 03:04:38;;;;;;;1.00;0.77;;;;;;;;;;8266076;28;20030;-56
2023/08/27 03:08:38;;;;;;;1.00;0.90;;;;;;;;;;8265898;28;20032;-56
2023/08/27 03:12:39;;;;;;;0.88;0.63;;;;;;;;;;8269669;28;20030;-55
2023/08/27 03:16:40;;;;;;;1.20;0.80;;;;;;;;;;8261995;28;20038;-56
2023/08/27 03:20:40;;;;;;;0.75;0.75;;;;;;;;;;8271674;28;20435;-55
2023/08/27 03:24:40;;;;;;;1.02;0.80;;;;;;;;;;8270552;28;20057;-56
2023/08/27 03:28:40;;;;;;;0.93;0.85;;;;;;;;;;8275630;28;20045;-55
2023/08/27 03:32:40;;;;;;;1.00;0.70;;;;;;;;;;8273144;28;20034;-56
2023/08/27 03:36:41;;;;;;;2.50;0.85;;;;;;;;;;8270645;28;20049;-55
2023/08/27 03:40:46;;;;;;;1.10;0.90;;;;;;;;;;8269976;28;20036;-55
2023/08/27 03:44:46;;;;;;;0.73;0.70;;;;;;;;;;8274911;28;20037;-55
2023/08/27 03:48:46;;;;;;;3.10;0.82;;;;;;;;;;8274617;28;20461;-55
2023/08/27 03:52:48;;;;;;;1.83;0.80;;;;;;;;;;8273377;28;20021;-56
2023/08/27 03:56:48;;;;;;;0.85;0.73;;;;;;;;;;8271402;28;20520;-56
2023/08/27 04:00:48;;;;;;;1.17;0.70;;;;;;;;;;8270746;28;20463;-56
2023/08/27 04:04:48;;;;;;;1.00;0.80;;;;;;;;;;8270334;28;20801;-56
2023/08/27 04:08:49;;;;;;;3.00;0.80;;;;;;;;;;8272726;28;20058;-56
2023/08/27 04:12:49;;;;;;;0.70;0.70;;;;;;;;;;8273501;28;20029;-56
2023/08/27 04:16:49;;;;;;;3.43;1.00;;;;;;;;;;8272093;28;20046;-56
2023/08/27 04:20:51;;;;;;;5.10;0.70;;;;;;;;;;8272717;28;20021;-55
2023/08/27 04:24:51;;;;;;;1.00;0.85;;;;;;;;;;8271849;28;20036;-55
2023/08/27 04:28:51;;;;;;;0.70;0.70;;;;;;;;;;8269364;28;20159;-55
2023/08/27 04:32:52;;;;;;;1.87;0.77;;;;;;;;;;8269979;28;20037;-56
2023/08/27 04:36:53;;;;;;;1.02;0.63;;;;;;;;;;8269598;28;20030;-55
2023/08/27 04:40:53;;;;;;;0.70;0.70;;;;;;;;;;8273281;28;20528;-56
2023/08/27 04:44:53;;;;;;;3.33;0.85;;;;;;;;;;8271565;28;20078;-56
2023/08/27 04:48:53;;;;;;;0.68;0.68;;;;;;;;;;8270076;28;20057;-56
2023/08/27 04:52:53;;;;;;;1.65;0.80;;;;;;;;;;8273769;28;20105;-56
2023/08/27 04:56:54;;;;;;;0.90;0.70;;;;;;;;;;8270393;28;20030;-55
2023/08/27 05:00:54;;;;;;;1.33;0.80;;;;;;;;;;8273241;28;20045;-55
2023/08/27 05:04:54;;;;;;;2.25;0.90;;;;;;;;;;8271953;28;20030;-55
2023/08/27 05:08:54;;;;;;;2.97;0.80;;;;;;;;;;8271115;28;20026;-55
2023/08/27 05:12:54;;;;;;;1.00;0.90;;;;;;;;;;8270877;28;20029;-55
2023/08/27 05:16:55;;;;;;;1.80;0.85;;;;;;;;;;8264529;28;20053;-55
2023/08/27 05:20:55;;;;;;;2.70;1.08;;;;;;;;;;8272355;28;20030;-56
2023/08/27 05:24:55;;;;;;;3.20;0.90;;;;;;;;;;8268666;28;20037;-56
2023/08/27 05:28:55;;;;;;;1.40;0.80;;;;;;;;;;8269867;28;20022;-56
2023/08/27 05:32:56;;;;;;;1.00;0.85;;;;;;;;;;8268766;28;20222;-56
2023/08/27 05:36:56;;;;;;;1.53;1.00;;;;;;;;;;8263493;28;20034;-54
2023/08/27 05:40:56;;;;;;;1.25;0.80;;;;;;;;;;8265661;28;20229;-55
2023/08/27 05:44:56;;;;;;;0.93;0.75;;;;;;;;;;8266778;28;20045;-56
2023/08/27 05:48:57;;;;;;;2.10;1.00;;;;;;;;;;8263144;28;20044;-55
2023/08/27 05:52:57;;;;;;;2.05;1.00;;;;;;;;;;8266205;28;20028;-56
2023/08/27 05:56:57;;;;;;;1.55;0.90;;;;;;;;;;8265110;28;20091;-56
2023/08/27 06:00:57;;;;;;;1.42;0.82;;;;;;;;;;8264429;28;20099;-56
2023/08/27 06:04:59;;;;;;;3.35;0.98;;;;;;;;;;8263347;28;20060;-56
2023/08/27 06:08:59;;;;;;;5.03;0.90;;;;;;;;;;8265574;28;20939;-56
2023/08/27 06:13:00;;;;;;;4.65;0.90;;;;;;;;;;8267950;28;20153;-56
2023/08/27 06:17:00;;;;;;;1.58;0.90;;;;;;;;;;8265763;28;20514;-56
2023/08/27 06:21:00;;;;;;;1.00;0.90;;;;;;;;;;8265838;28;20827;-56
2023/08/27 06:25:01;;;;;;;1.00;0.90;;;;;;;;;;8265638;28;20670;-56
2023/08/27 06:29:01;;;;;;;2.83;0.97;;;;;;;;;;8266597;28;20494;-55
2023/08/27 06:33:01;;;;;;;1.90;1.00;;;;;;;;;;8261535;28;20318;-56
2023/08/27 06:37:02;;;;;;;2.42;1.20;;;;;;;;;;8263601;28;20029;-56
2023/08/27 06:41:02;;;;;;;3.78;1.05;;;;;;;;;;8264713;28;20026;-56
2023/08/27 06:45:04;;;;;;;0.90;0.90;;;;;;;;;;8260202;28;20483;-56
2023/08/27 06:49:04;;;;;;;1.52;1.20;;;;;;;;;;8264329;28;20059;-56
2023/08/27 06:53:05;;;;;;;2.65;1.05;;;;;;;;;;8266026;28;20720;-56
2023/08/27 06:57:05;;;;;;;0.80;0.80;;;;;;;;;;8269534;28;20230;-55
2023/08/27 07:01:05;;;;;;;2.63;1.23;;;;;;;;;;8274833;28;20037;-56
2023/08/27 07:05:08;;;;;;;1.20;1.10;;;;;;;;;;8272174;28;20029;-56
2023/08/27 07:09:09;;;;;;;2.77;1.27;;;;;;;;;;8269005;28;20025;-56
2023/08/27 07:13:09;;;;;;;2.88;1.48;;;;;;;;;;8271440;28;20017;-57
2023/08/27 07:17:09;;;;;;;2.75;1.20;;;;;;;;;;8270127;28;20331;-57
2023/08/27 07:21:09;;;;;;;2.97;1.37;;;;;;;;;;8274291;28;20010;-55
2023/08/27 07:25:10;;;;;;;1.33;1.10;;;;;;;;;;8270553;28;20955;-56
2023/08/27 07:29:10;;;;;;;1.42;1.00;;;;;;;;;;8262071;28;20010;-56
2023/08/27 07:33:11;;;;;;;2.35;0.98;;;;;;;;;;8264688;28;20370;-56
2023/08/27 07:37:17;;;;;;;1.73;1.00;;;;;;;;;;8269082;28;20091;-56
2023/08/27 07:41:17;;;;;;;1.15;1.10;;;;;;;;;;8266544;28;20025;-56
2023/08/27 07:45:18;;;;;;;2.50;1.40;;;;;;;;;;8268110;28;20025;-56
2023/08/27 07:49:18;;;;;;;1.97;1.20;;;;;;;;;;8268146;28;20276;-56
2023/08/27 07:53:18;;;;;;;1.60;0.90;;;;;;;;;;8267667;28;20030;-56
2023/08/27 07:57:18;;;;;;;1.65;0.90;;;;;;;;;;8270305;28;20105;-56
2023/08/27 08:01:18;;;;;;;3.17;1.00;;;;;;;;;;8270654;28;20112;-56
2023/08/27 08:05:19;;;;;;;1.52;0.93;;;;;;;;;;8268127;28;20091;-56
2023/08/27 08:09:19;;;;;;;1.67;1.05;;;;;;;;;;8274710;28;20539;-56
2023/08/27 08:13:19;;;;;;;2.50;1.10;;;;;;;;;;8270937;28;20026;-57
2023/08/27 08:17:19;;;;;;;2.92;1.00;;;;;;;;;;8271635;28;20126;-56
2023/08/27 08:21:19;;;;;;;1.80;0.93;;;;;;;;;;8273429;28;20188;-56
2023/08/27 08:25:20;;;;;;;2.30;1.08;;;;;;;;;;8271767;28;20026;-56
2023/08/27 08:29:21;;;;;;;1.20;1.10;;;;;;;;;;8275923;28;20049;-57
2023/08/27 08:33:22;;;;;;;2.75;1.20;;;;;;;;;;8273382;28;20032;-56
2023/08/27 08:37:22;;;;;;;1.95;1.30;;;;;;;;;;8270867;28;20029;-57
2023/08/27 08:41:25;;;;;;;1.95;1.27;;;;;;;;;;8273877;28;20014;-56
2023/08/27 08:45:29;;;;;;;2.08;1.50;;;;;;;;;;8273688;28;20050;-57
2023/08/27 08:49:30;;;;;;;2.10;1.30;;;;;;;;;;8273133;28;20029;-57
2023/08/27 08:53:32;;;;;;;1.50;1.40;;;;;;;;;;8272015;28;20025;-57
2023/08/27 08:57:35;;;;;;;4.28;1.88;;;;;;;;;;8272302;28;20018;-57
2023/08/27 09:01:36;;;;;;;5.30;1.63;;;;;;;;;;8274268;28;20114;-57
2023/08/27 09:05:37;;;;;;;3.60;1.48;;;;;;;;;;8274534;28;20626;-57
2023/08/27 09:09:38;;;;;;;2.30;1.40;;;;;;;;;;8273325;28;20800;-57
2023/08/27 09:13:38;;;;;;;1.88;1.50;;;;;;;;;;8271375;28;20040;-57
2023/08/27 09:17:39;;;;;;;3.13;1.70;;;;;;;;;;8268048;28;20033;-57
2023/08/27 09:21:41;;;;;;;3.40;1.60;;;;;;;;;;8269792;28;20060;-57
2023/08/27 09:25:41;;;;;;;1.63;1.10;;;;;;;;;;8269210;28;20172;-57
2023/08/27 09:29:42;;;;;;;2.28;1.30;;;;;;;;;;8268703;28;20079;-56
2023/08/27 09:33:42;;;;;;;2.45;1.02;;;;;;;;;;8269934;28;20121;-57
2023/08/27 09:37:43;;;;;;;2.43;1.23;;;;;;;;;;8273855;28;21002;-57
2023/08/27 09:41:44;;;;;;;2.35;1.17;;;;;;;;;;8269513;28;20030;-57
2023/08/27 09:45:44;;;;;;;1.38;1.20;;;;;;;;;;8268486;28;20104;-57
2023/08/27 09:49:45;;;;;;;2.17;1.30;;;;;;;;;;8268944;28;20470;-58
2023/08/27 09:53:45;;;;;;;2.70;1.20;;;;;;;;;;8269334;28;20014;-58
2023/08/27 09:57:53;;;;;;;1.55;1.10;;;;;;;;;;8270609;28;20026;-57
2023/08/27 10:01:54;;;;;;;5.88;1.23;;;;;;;;;;8268925;28;20123;-57
2023/08/27 10:05:54;;;;;;;1.90;1.10;;;;;;;;;;8268690;28;20033;-57
2023/08/27 10:09:54;;;;;;;2.85;1.20;;;;;;;;;;8271307;28;20017;-57
2023/08/27 10:13:57;;;;;;;2.17;1.15;;;;;;;;;;8268443;28;20037;-58
2023/08/27 10:17:57;;;;;;;1.65;1.15;;;;;;;;;;8261679;28;20124;-57
2023/08/27 10:21:58;;;;;;;2.33;1.15;;;;;;;;;;8261943;28;20106;-57
2023/08/27 10:25:59;;;;;;;1.92;1.10;;;;;;;;;;8265847;28;20034;-57
2023/08/27 10:30:00;;;;;;;1.95;1.50;;;;;;;;;;8268334;28;20037;-57
2023/08/27 10:34:00;;;;;;;2.38;1.30;;;;;;;;;;8267743;28;20042;-57
2023/08/27 10:38:02;;;;;;;2.83;1.13;;;;;;;;;;8264886;28;20041;-57
2023/08/27 10:42:04;;;;;;;2.35;1.17;;;;;;;;;;8268300;28;20731;-57
2023/08/27 10:46:10;;;;;;;1.77;1.10;;;;;;;;;;8266580;28;20057;-57
2023/08/27 10:50:17;;;;;;;4.85;1.40;;;;;;;;;;8270175;28;20021;-57
2023/08/27 10:54:23;;;;;;;1.80;1.40;;;;;;;;;;8266447;28;20073;-57
2023/08/27 10:58:24;;;;;;;1.65;1.30;;;;;;;;;;8268984;28;20021;-57
2023/08/27 11:02:24;;;;;;;2.20;1.27;;;;;;;;;;8267902;28;20137;-57
2023/08/27 11:06:51;;;;;;;1.70;1.23;;;;;;;;;;8264434;28;20061;-57
2023/08/27 11:10:51;;;;;;;5.68;1.25;;;;;;;;;;8266747;28;20092;-57
2023/08/27 11:14:52;;;;;;;1.75;1.10;;;;;;;;;;8268509;28;20053;-56
2023/08/27 11:18:53;;;;;;;2.90;1.23;;;;;;;;;;8263752;28;21246;-57
2023/08/27 11:23:00;;;;;;;3.92;1.27;;;;;;;;;;8267027;28;20014;-58
2023/08/27 11:27:02;;;;;;;1.35;1.15;;;;;;;;;;8260456;28;20029;-57
2023/08/27 11:31:02;;;;;;;3.45;1.20;;;;;;;;;;8263322;28;20117;-56
2023/08/27 11:35:05;;;;;;;1.92;1.23;;;;;;;;;;8267397;28;20073;-57
2023/08/27 11:39:08;;;;;;;2.67;1.20;;;;;;;;;;8270647;28;20097;-57
2023/08/27 11:43:08;;;;;;;3.08;1.20;;;;;;;;;;8271910;28;20037;-57
2023/08/27 11:47:08;;;;;;;2.72;1.23;;;;;;;;;;8276860;28;20050;-57
2023/08/27 11:51:09;;;;;;;1.88;1.10;;;;;;;;;;8273064;28;20037;-57
2023/08/27 11:55:09;;;;;;;1.45;1.10;;;;;;;;;;8274598;28;20087;-57
2023/08/27 11:59:10;;;;;;;3.83;1.38;;;;;;;;;;8268416;28;20381;-57
2023/08/27 12:03:10;;;;;;;1.60;1.27;;;;;;;;;;8265268;28;20040;-56
2023/08/27 12:07:11;;;;;;;1.30;1.10;;;;;;;;;;8274843;28;20073;-57
2023/08/27 12:11:12;;;;;;;3.43;1.20;;;;;;;;;;8262412;28;20041;-57
2023/08/27 12:15:13;;;;;;;2.72;1.40;;;;;;;;;;8267639;28;20516;-57
2023/08/27 12:19:13;;;;;;;1.80;1.10;;;;;;;;;;8269448;28;20094;-57
2023/08/27 12:23:13;;;;;;;1.88;1.20;;;;;;;;;;8274147;28;20021;-57
2023/08/27 12:27:19;;;;;;;1.10;1.10;;;;;;;;;;8270296;28;20034;-57
2023/08/27 12:31:23;;;;;;;3.63;1.30;;;;;;;;;;8271930;28;20052;-57
2023/08/27 12:35:28;;;;;;;2.13;1.20;;;;;;;;;;8269843;28;20037;-57
2023/08/27 12:39:28;;;;;;;2.63;1.45;;;;;;;;;;8271497;28;20029;-58
2023/08/27 12:43:28;;;;;;;5.03;1.40;;;;;;;;;;8273659;28;20017;-57
2023/08/27 12:47:28;;;;;;;2.90;1.30;;;;;;;;;;8269355;28;20049;-57
2023/08/27 12:51:28;;;;;;;2.40;1.20;;;;;;;;;;8268940;28;20130;-57
2023/08/27 12:55:29;;;;;;;1.92;1.30;;;;;;;;;;8271252;28;20037;-57
2023/08/27 12:59:29;;;;;;;1.40;1.20;;;;;;;;;;8269913;28;20033;-58
2023/08/27 13:03:29;;;;;;;1.63;1.35;;;;;;;;;;8265580;28;20568;-57
2023/08/27 13:07:31;;;;;;;1.30;1.20;;;;;;;;;;8263557;28;20100;-57
2023/08/27 13:11:31;;;;;;;3.25;1.30;;;;;;;;;;8257398;28;20352;-56
2023/08/27 13:15:31;;;;;;;3.03;1.23;;;;;;;;;;8259940;28;20132;-57
2023/08/27 13:19:31;;;;;;;2.55;1.55;;;;;;;;;;8263679;28;20193;-56
2023/08/27 13:23:32;;;;;;;1.73;1.27;;;;;;;;;;8265298;28;20120;-56
2023/08/27 13:27:32;;;;;;;1.50;1.10;;;;;;;;;;8265036;28;20014;-57
2023/08/27 13:31:32;;;;;;;2.08;1.30;;;;;;;;;;8267352;28;20533;-57
2023/08/27 13:35:33;;;;;;;1.67;1.13;;;;;;;;;;8267388;28;20022;-57
2023/08/27 13:39:33;;;;;;;2.85;1.20;;;;;;;;;;8260036;28;20141;-57
2023/08/27 13:43:33;;;;;;;2.22;1.30;;;;;;;;;;8258166;28;20149;-57
2023/08/27 13:47:34;;;;;;;1.85;1.17;;;;;;;;;;8258461;28;20061;-57
2023/08/27 13:51:34;;;;;;;1.45;1.10;;;;;;;;;;8263076;28;20442;-57
2023/08/27 13:55:34;;;;;;;1.80;1.00;;;;;;;;;;8263223;28;20059;-57
2023/08/27 13:59:34;;;;;;;2.22;1.00;;;;;;;;;;8258189;28;20030;-59
2023/08/27 14:03:34;;;;;;;2.58;1.13;;;;;;;;;;8256188;28;20065;-56
2023/08/27 14:07:35;;;;;;;1.63;0.90;;;;;;;;;;8258602;28;20026;-56
2023/08/27 14:11:39;;;;;;;1.92;1.20;;;;;;;;;;8262233;28;20509;-56
2023/08/27 14:15:39;;;;;;;1.23;0.98;;;;;;;;;;8255611;28;20461;-57
2023/08/27 14:19:40;;;;;;;1.88;0.95;;;;;;;;;;8259293;28;20505;-56
2023/08/27 14:23:40;;;;;;;1.33;1.02;;;;;;;;;;8263128;28;20467;-56
2023/08/27 14:27:40;;;;;;;1.75;1.00;;;;;;;;;;8261877;28;20068;-57
2023/08/27 14:31:40;;;;;;;1.80;1.20;;;;;;;;;;8263691;28;20668;-56
2023/08/27 14:35:40;;;;;;;1.17;1.00;;;;;;;;;;8258852;28;20099;-56
2023/08/27 14:39:41;;;;;;;1.20;1.10;;;;;;;;;;8258993;28;20025;-56
2023/08/27 14:43:41;;;;;;;1.48;1.08;;;;;;;;;;8259678;28;20033;-58
2023/08/27 14:47:41;;;;;;;2.03;1.00;;;;;;;;;;8259872;28;20050;-56
2023/08/27 14:51:41;;;;;;;1.52;1.00;;;;;;;;;;8261588;28;21325;-57
2023/08/27 14:55:41;;;;;;;2.35;1.20;;;;;;;;;;8257631;28;20026;-57
2023/08/27 14:59:42;;;;;;;2.13;1.13;;;;;;;;;;8261716;28;20030;-57
2023/08/27 15:03:42;;;;;;;1.37;0.90;;;;;;;;;;8265633;28;20095;-56
2023/08/27 15:07:42;;;;;;;1.80;0.97;;;;;;;;;;8267079;28;20284;-56
2023/08/27 15:11:42;;;;;;;1.05;0.82;;;;;;;;;;8261812;28;20041;-56
2023/08/27 15:15:42;;;;;;;1.00;0.90;;;;;;;;;;8263417;28;20155;-56
2023/08/27 15:19:43;;;;;;;3.60;1.20;;;;;;;;;;8265950;28;20505;-56
2023/08/27 15:23:43;;;;;;;1.67;1.02;;;;;;;;;;8265982;28;20045;-56
2023/08/27 15:27:43;;;;;;;0.80;0.80;;;;;;;;;;8265214;28;20084;-56
2023/08/27 15:31:43;;;;;;;2.20;1.10;;;;;;;;;;8265851;28;20064;-57
2023/08/27 15:35:44;;;;;;;1.50;1.00;;;;;;;;;;8261849;28;20053;-57
2023/08/27 15:39:51;;;;;;;1.52;0.90;;;;;;;;;;8262103;28;20025;-57
2023/08/27 15:43:51;;;;;;;1.65;1.02;;;;;;;;;;8264223;28;20116;-56
2023/08/27 15:47:52;;;;;;;1.33;1.00;;;;;;;;;;8264858;28;20042;-56
2023/08/27 15:51:52;;;;;;;2.58;1.10;;;;;;;;;;8265986;28;20026;-56
2023/08/27 15:55:52;;;;;;;1.63;1.10;;;;;;;;;;8257275;28;20029;-56
2023/08/27 15:59:52;;;;;;;1.33;1.00;;;;;;;;;;8262037;28;20026;-56
2023/08/27 16:03:52;;;;;;;2.13;0.93;;;;;;;;;;8259375;28;20043;-56
2023/08/27 16:07:53;;;;;;;2.03;0.98;;;;;;;;;;8259190;28;20064;-57
2023/08/27 16:11:53;;;;;;;1.90;1.10;;;;;;;;;;8260267;28;20045;-56
2023/08/27 16:15:53;;;;;;;3.30;1.00;;;;;;;;;;8253196;28;20152;-57
2023/08/27 16:19:53;;;;;;;0.98;0.80;;;;;;;;;;8258799;28;20018;-56
2023/08/27 16:24:03;;;;;;;1.48;1.00;;;;;;;;;;8274944;28;20100;-56
2023/08/27 16:28:04;;;;;;;0.98;0.80;;;;;;;;;;8265335;28;20104;-56
2023/08/27 16:32:04;;;;;;;1.73;0.90;;;;;;;;;;8263409;28;20403;-57
2023/08/27 16:36:05;;;;;;;0.75;0.75;;;;;;;;;;8260058;28;20029;-57
2023/08/27 16:40:06;;;;;;;1.38;1.00;;;;;;;;;;8258701;28;20040;-57
2023/08/27 16:44:07;;;;;;;2.55;1.20;;;;;;;;;;8260002;28;20022;-57
2023/08/27 16:48:07;;;;;;;1.48;0.93;;;;;;;;;;8257314;28;20084;-57
2023/08/27 16:52:08;;;;;;;1.08;0.95;;;;;;;;;;8260210;28;20017;-57
2023/08/27 16:56:08;;;;;;;3.00;0.98;;;;;;;;;;8256037;28;20029;-57
2023/08/27 17:00:09;;;;;;;0.93;0.93;;;;;;;;;;8260803;28;20068;-57
2023/08/27 17:04:09;;;;;;;0.90;0.90;;;;;;;;;;8254362;28;20033;-56
2023/08/27 17:08:10;;;;;;;2.55;0.90;;;;;;;;;;8256155;28;20061;-57
2023/08/27 17:12:10;;;;;;;2.70;0.88;;;;;;;;;;8255295;28;20038;-57
2023/08/27 17:16:10;;;;;;;1.33;0.90;;;;;;;;;;8252748;28;20155;-57
2023/08/27 17:20:11;;;;;;;2.25;1.10;;;;;;;;;;8256179;28;20311;-57
2023/08/27 17:24:11;;;;;;;0.77;0.77;;;;;;;;;;8262008;28;20033;-57
2023/08/27 17:28:11;;;;;;;1.43;0.90;;;;;;;;;;8260137;28;21177;-58
2023/08/27 17:32:12;;;;;;;1.13;1.02;;;;;;;;;;8266875;28;20030;-57
2023/08/27 17:36:12;;;;;;;1.17;0.90;;;;;;;;;;8263371;28;20025;-57
2023/08/27 17:40:12;;;;;;;0.95;0.90;;;;;;;;;;8267985;28;20345;-57
2023/08/27 17:44:13;;;;;;;2.27;1.00;;;;;;;;;;8265130;28;20128;-57
2023/08/27 17:48:13;;;;;;;0.97;0.90;;;;;;;;;;8262577;28;20033;-57
2023/08/27 17:52:14;;;;;;;0.80;0.80;;;;;;;;;;8267402;28;20308;-57
2023/08/27 17:56:14;;;;;;;2.47;0.90;;;;;;;;;;8262978;28;20040;-57
2023/08/27 18:00:14;;;;;;;1.30;1.00;;;;;;;;;;8263652;28;20154;-57
2023/08/27 18:04:15;;;;;;;0.73;0.73;;;;;;;;;;8262247;28;20049;-57
2023/08/27 18:08:21;;;;;;;1.13;0.90;;;;;;;;;;8265406;28;20142;-57
2023/08/27 18:12:21;;;;;;;1.73;0.80;;;;;;;;;;8262419;28;20014;-57
2023/08/27 18:16:22;;;;;;;1.40;0.90;;;;;;;;;;8262461;28;20038;-58
2023/08/27 18:20:23;;;;;;;0.80;0.73;;;;;;;;;;8263904;28;20025;-57
2023/08/27 18:24:23;;;;;;;1.10;1.00;;;;;;;;;;8265105;28;20025;-55
2023/08/27 18:28:23;;;;;;;2.20;1.30;;;;;;;;;;8258822;28;20048;-57
2023/08/27 18:32:23;;;;;;;0.70;0.70;;;;;;;;;;8264169;28;20038;-56
2023/08/27 18:36:24;;;;;;;1.33;1.00;;;;;;;;;;8262627;28;20387;-57
2023/08/27 18:40:24;;;;;;;1.10;0.80;;;;;;;;;;8263118;28;20021;-57
2023/08/27 18:44:24;;;;;;;1.03;0.90;;;;;;;;;;8261687;28;20112;-57
2023/08/27 18:48:25;;;;;;;2.13;0.90;;;;;;;;;;8261970;28;20034;-57
2023/08/27 18:52:26;;;;;;;2.03;1.03;;;;;;;;;;8264349;28;20732;-57
2023/08/27 18:56:28;;;;;;;2.95;1.00;;;;;;;;;;8261849;28;20076;-56
2023/08/27 19:00:28;;;;;;;2.03;1.00;;;;;;;;;;8261503;28;20061;-55
2023/08/27 19:04:28;;;;;;;2.60;1.20;;;;;;;;;;8261130;28;20156;-57
2023/08/27 19:08:29;;;;;;;2.10;0.85;;;;;;;;;;8264576;28;20022;-59
2023/08/27 19:12:29;;;;;;;0.82;0.80;;;;;;;;;;8262991;28;20048;-57
2023/08/27 19:16:30;;;;;;;3.75;1.00;;;;;;;;;;8261496;28;20076;-57
2023/08/27 19:20:30;;;;;;;2.43;1.00;;;;;;;;;;8261825;28;20014;-57
2023/08/27 19:24:30;;;;;;;1.50;0.90;;;;;;;;;;8258585;28;20289;-57
2023/08/27 19:28:31;;;;;;;0.80;0.80;;;;;;;;;;8259508;28;20057;-57
2023/08/27 19:32:31;;;;;;;1.48;1.00;;;;;;;;;;8259949;28;20272;-56
2023/08/27 19:36:32;;;;;;;1.13;0.70;;;;;;;;;;8257206;28;20030;-57
2023/08/27 19:40:35;;;;;;;1.02;0.90;;;;;;;;;;8252065;28;20037;-57
2023/08/27 19:44:35;;;;;;;1.75;0.80;;;;;;;;;;8256332;28;20034;-57
2023/08/27 19:48:36;;;;;;;0.70;0.70;;;;;;;;;;8262447;28;20094;-56
2023/08/27 19:52:36;;;;;;;1.38;0.73;;;;;;;;;;8257872;28;20021;-57
2023/08/27 19:56:37;;;;;;;1.95;0.90;;;;;;;;;;8258171;28;20540;-56
2023/08/27 20:00:37;;;;;;;0.82;0.63;;;;;;;;;;8263854;28;20136;-55
2023/08/27 20:04:37;;;;;;;1.05;0.80;;;;;;;;;;8269106;28;20567;-55
2023/08/27 20:08:38;;;;;;;1.27;0.77;;;;;;;;;;8264374;28;20022;-55
2023/08/27 20:12:38;;;;;;;0.75;0.75;;;;;;;;;;8267805;28;20264;-55
2023/08/27 20:16:39;;;;;;;1.42;0.73;;;;;;;;;;8265459;28;20034;-56
2023/08/27 20:20:39;;;;;;;3.30;0.70;;;;;;;;;;8263787;28;20021;-55
2023/08/27 20:24:39;;;;;;;1.35;0.70;;;;;;;;;;8270477;28;20057;-55
2023/08/27 20:28:41;;;;;;;2.00;0.60;;;;;;;;;;8269798;28;20494;-56
2023/08/27 20:32:41;;;;;;;3.65;0.77;;;;;;;;;;8268826;28;20124;-56
2023/08/27 20:36:42;;;;;;;3.65;0.73;;;;;;;;;;8269121;28;20064;-56
2023/08/27 20:40:42;;;;;;;3.00;0.75;;;;;;;;;;8271610;28;20025;-56
2023/08/27 20:44:42;;;;;;;1.63;0.67;;;;;;;;;;8266973;28;20028;-56
2023/08/27 20:48:43;;;;;;;1.83;0.80;;;;;;;;;;8266945;28;20605;-56
2023/08/27 20:52:43;;;;;;;1.20;0.60;;;;;;;;;;8272345;28;20068;-55
2023/08/27 20:56:44;;;;;;;2.22;0.70;;;;;;;;;;8267803;28;20722;-55
2023/08/27 21:00:44;;;;;;;0.77;0.60;;;;;;;;;;8267563;28;20038;-55
2023/08/27 21:04:44;;;;;;;2.35;0.70;;;;;;;;;;8263277;28;20796;-56
2023/08/27 21:08:45;;;;;;;1.65;0.65;;;;;;;;;;8267718;28;20095;-55
2023/08/27 21:12:45;;;;;;;0.80;0.65;;;;;;;;;;8270798;28;20264;-55
2023/08/27 21:16:45;;;;;;;1.73;0.80;;;;;;;;;;8270745;28;20912;-56
2023/08/27 21:20:51;;;;;;;2.38;0.70;;;;;;;;;;8264309;28;20153;-55
2023/08/27 21:24:51;;;;;;;1.63;0.70;;;;;;;;;;8269041;28;20014;-55
2023/08/27 21:28:52;;;;;;;1.80;0.65;;;;;;;;;;8270598;28;20077;-56
2023/08/27 21:32:53;;;;;;;1.63;0.65;;;;;;;;;;8265949;28;20041;-55
2023/08/27 21:36:53;;;;;;;2.42;0.60;;;;;;;;;;8270130;28;20034;-56
2023/08/27 21:40:53;;;;;;;1.10;0.80;;;;;;;;;;8268046;28;20032;-55
2023/08/27 21:44:54;;;;;;;0.70;0.70;;;;;;;;;;8270448;28;20284;-55
2023/08/27 21:48:54;;;;;;;0.60;0.60;;;;;;;;;;8265192;28;20053;-55
2023/08/27 21:52:54;;;;;;;2.00;0.67;;;;;;;;;;8271220;28;20988;-55
2023/08/27 21:56:55;;;;;;;1.80;0.50;;;;;;;;;;8266449;28;20310;-55
2023/08/27 22:00:55;;;;;;;0.90;0.60;;;;;;;;;;8267583;28;20280;-55
2023/08/27 22:04:55;;;;;;;0.67;0.67;;;;;;;;;;8265979;28;20033;-55
2023/08/27 22:08:55;;;;;;;4.50;0.88;;;;;;;;;;8266003;28;20052;-55
2023/08/27 22:12:56;;;;;;;0.60;0.60;;;;;;;;;;8268993;28;20351;-55
2023/08/27 22:16:56;;;;;;;1.33;0.60;;;;;;;;;;8266514;28;20920;-55
2023/08/27 22:20:59;;;;;;;2.03;0.90;;;;;;;;;;8266594;28;20036;-55
2023/08/27 22:24:59;;;;;;;0.82;0.63;;;;;;;;;;8263794;28;20132;-55
2023/08/27 22:28:59;;;;;;;0.93;0.70;;;;;;;;;;8264453;28;20061;-55
2023/08/27 22:33:00;;;;;;;3.08;0.70;;;;;;;;;;8265283;28;20152;-56
2023/08/27 22:37:01;;;;;;;1.55;0.80;;;;;;;;;;8262380;28;20048;-55
2023/08/27 22:41:01;;;;;;;1.52;0.70;;;;;;;;;;8263767;28;20025;-56
2023/08/27 22:45:02;;;;;;;1.30;0.60;;;;;;;;;;8265590;28;20109;-55
2023/08/27 22:49:02;;;;;;;0.80;0.80;;;;;;;;;;8265574;28;20089;-55
2023/08/27 22:53:04;;;;;;;1.10;0.70;;;;;;;;;;8266250;28;20401;-56
2023/08/27 22:57:04;;;;;;;0.70;0.70;;;;;;;;;;8264855;28;20083;-56
2023/08/27 23:01:04;;;;;;;2.80;0.70;;;;;;;;;;8265722;28;20037;-55
2023/08/27 23:05:05;;;;;;;1.10;0.60;;;;;;;;;;8265668;28;20025;-56
2023/08/27 23:09:05;;;;;;;1.23;0.65;;;;;;;;;;8263219;28;20116;-56
2023/08/27 23:13:06;;;;;;;5.43;0.73;;;;;;;;;;8261624;28;20020;-55
2023/08/27 23:17:08;;;;;;;2.90;0.75;;;;;;;;;;8264420;28;20046;-55
2023/08/27 23:21:08;;;;;;;1.75;0.70;;;;;;;;;;8267977;28;22011;-56
2023/08/27 23:25:09;;;;;;;0.93;0.80;;;;;;;;;;8264130;28;20029;-56
2023/08/27 23:29:09;;;;;;;0.70;0.60;;;;;;;;;;8266124;28;20879;-55
2023/08/27 23:33:09;;;;;;;1.00;0.63;;;;;;;;;;8265620;28;20041;-55
2023/08/27 23:37:10;;;;;;;1.08;0.60;;;;;;;;;;8272465;28;20056;-55
2023/08/27 23:41:10;;;;;;;0.82;0.60;;;;;;;;;;8271949;28;20155;-55
2023/08/27 23:45:11;;;;;;;0.95;0.70;;;;;;;;;;8270726;28;20022;-55
2023/08/27 23:49:11;;;;;;;1.17;0.52;;;;;;;;;;8271939;28;20025;-55
2023/08/27 23:53:11;;;;;;;0.93;0.60;;;;;;;;;;8273817;28;20021;-55
2023/08/27 23:57:11;;;;;;;2.90;0.87;;;;;;;;;;8270590;28;20041;-55
